sensor_id;sensor_type;location;lat;lon;timestamp;P1;durP1;ratioP1;P2;durP2;ratioP2
19780;SDS011;10050;55.492;13.506;2023-02-15T00:00:54;38.07;;;19.37;;
19780;SDS011;10050;55.492;13.506;2023-02-15T00:03:29;37.43;;;19.00;;
19780;SDS011;10050;55.492;13.506;2023-02-15T00:05:56;32.67;;;17.50;;
19780;SDS011;10050;55.492;13.506;2023-02-15T00:08:22;39.43;;;20.33;;
19780;SDS011;10050;55.492;13.506;2023-02-15T00:10:48;34.33;;;18.40;;
19780;SDS011;10050;55.492;13.506;2023-02-15T00:13:13;38.73;;;20.47;;
19780;SDS011;10050;55.492;13.506;2023-02-15T00:15:39;41.07;;;19.73;;
19780;SDS011;10050;55.492;13.506;2023-02-15T00:18:05;38.80;;;19.17;;
19780;SDS011;10050;55.492;13.506;2023-02-15T00:20:30;40.90;;;21.27;;
19780;SDS011;10050;55.492;13.506;2023-02-15T00:22:56;33.20;;;18.60;;
19780;SDS011;10050;55.492;13.506;2023-02-15T00:25:22;34.03;;;18.83;;
19780;SDS011;10050;55.492;13.506;2023-02-15T00:27:48;41.43;;;20.83;;
19780;SDS011;10050;55.492;13.506;2023-02-15T00:30:13;35.77;;;18.23;;
19780;SDS011;10050;55.492;13.506;2023-02-15T00:32:39;34.83;;;19.17;;
19780;SDS011;10050;55.492;13.506;2023-02-15T00:35:04;40.60;;;21.10;;
19780;SDS011;10050;55.492;13.506;2023-02-15T00:37:31;44.00;;;21.63;;
19780;SDS011;10050;55.492;13.506;2023-02-15T00:39:57;36.23;;;19.53;;
19780;SDS011;10050;55.492;13.506;2023-02-15T00:42:23;36.63;;;18.53;;
19780;SDS011;10050;55.492;13.506;2023-02-15T00:44:49;38.67;;;20.20;;
19780;SDS011;10050;55.492;13.506;2023-02-15T00:47:14;33.50;;;18.07;;
19780;SDS011;10050;55.492;13.506;2023-02-15T00:49:40;41.33;;;20.33;;
19780;SDS011;10050;55.492;13.506;2023-02-15T00:52:05;39.83;;;19.87;;
19780;SDS011;10050;55.492;13.506;2023-02-15T00:54:31;41.23;;;20.37;;
19780;SDS011;10050;55.492;13.506;2023-02-15T00:56:57;40.93;;;20.57;;
19780;SDS011;10050;55.492;13.506;2023-02-15T00:59:22;36.40;;;18.30;;
19780;SDS011;10050;55.492;13.506;2023-02-15T01:01:48;30.30;;;18.00;;
19780;SDS011;10050;55.492;13.506;2023-02-15T01:04:14;35.73;;;18.03;;
19780;SDS011;10050;55.492;13.506;2023-02-15T01:06:39;36.83;;;20.07;;
19780;SDS011;10050;55.492;13.506;2023-02-15T01:09:05;36.13;;;20.13;;
19780;SDS011;10050;55.492;13.506;2023-02-15T01:11:30;44.17;;;21.37;;
19780;SDS011;10050;55.492;13.506;2023-02-15T01:13:57;39.50;;;21.10;;
19780;SDS011;10050;55.492;13.506;2023-02-15T01:16:24;40.27;;;20.70;;
19780;SDS011;10050;55.492;13.506;2023-02-15T01:18:51;39.50;;;19.57;;
19780;SDS011;10050;55.492;13.506;2023-02-15T01:21:18;39.10;;;20.00;;
19780;SDS011;10050;55.492;13.506;2023-02-15T01:23:45;29.80;;;17.83;;
19780;SDS011;10050;55.492;13.506;2023-02-15T01:26:12;36.47;;;18.83;;
19780;SDS011;10050;55.492;13.506;2023-02-15T01:28:38;38.93;;;19.83;;
19780;SDS011;10050;55.492;13.506;2023-02-15T01:31:04;37.87;;;19.20;;
19780;SDS011;10050;55.492;13.506;2023-02-15T01:33:34;37.83;;;18.57;;
19780;SDS011;10050;55.492;13.506;2023-02-15T01:36:00;41.20;;;20.67;;
19780;SDS011;10050;55.492;13.506;2023-02-15T01:38:26;41.00;;;19.70;;
19780;SDS011;10050;55.492;13.506;2023-02-15T01:40:52;44.23;;;21.33;;
19780;SDS011;10050;55.492;13.506;2023-02-15T01:43:18;39.80;;;20.13;;
19780;SDS011;10050;55.492;13.506;2023-02-15T01:45:45;40.23;;;20.00;;
19780;SDS011;10050;55.492;13.506;2023-02-15T01:48:20;38.03;;;19.03;;
19780;SDS011;10050;55.492;13.506;2023-02-15T01:50:52;37.10;;;19.50;;
19780;SDS011;10050;55.492;13.506;2023-02-15T01:53:24;34.93;;;18.73;;
19780;SDS011;10050;55.492;13.506;2023-02-15T01:55:59;41.07;;;21.33;;
19780;SDS011;10050;55.492;13.506;2023-02-15T01:58:31;40.70;;;20.87;;
19780;SDS011;10050;55.492;13.506;2023-02-15T02:00:59;40.67;;;20.33;;
19780;SDS011;10050;55.492;13.506;2023-02-15T02:04:00;39.27;;;19.40;;
19780;SDS011;10050;55.492;13.506;2023-02-15T02:06:29;43.67;;;20.17;;
19780;SDS011;10050;55.492;13.506;2023-02-15T02:08:56;44.63;;;21.53;;
19780;SDS011;10050;55.492;13.506;2023-02-15T02:11:23;43.63;;;20.07;;
19780;SDS011;10050;55.492;13.506;2023-02-15T02:13:49;37.63;;;19.13;;
19780;SDS011;10050;55.492;13.506;2023-02-15T02:16:33;34.07;;;18.30;;
19780;SDS011;10050;55.492;13.506;2023-02-15T02:35:53;38.10;;;19.63;;
19780;SDS011;10050;55.492;13.506;2023-02-15T02:41:20;55.53;;;25.10;;
19780;SDS011;10050;55.492;13.506;2023-02-15T02:46:32;52.03;;;24.57;;
19780;SDS011;10050;55.492;13.506;2023-02-15T02:49:02;46.80;;;23.83;;
19780;SDS011;10050;55.492;13.506;2023-02-15T02:51:27;53.43;;;25.93;;
19780;SDS011;10050;55.492;13.506;2023-02-15T02:53:54;58.37;;;27.47;;
19780;SDS011;10050;55.492;13.506;2023-02-15T02:56:28;47.00;;;22.70;;
19780;SDS011;10050;55.492;13.506;2023-02-15T02:59:12;52.53;;;24.27;;
19780;SDS011;10050;55.492;13.506;2023-02-15T03:01:45;57.00;;;25.77;;
19780;SDS011;10050;55.492;13.506;2023-02-15T03:04:37;55.23;;;25.93;;
19780;SDS011;10050;55.492;13.506;2023-02-15T03:07:11;54.43;;;25.57;;
19780;SDS011;10050;55.492;13.506;2023-02-15T03:09:45;54.77;;;24.47;;
19780;SDS011;10050;55.492;13.506;2023-02-15T03:12:15;54.07;;;26.03;;
19780;SDS011;10050;55.492;13.506;2023-02-15T03:14:50;54.90;;;24.70;;
19780;SDS011;10050;55.492;13.506;2023-02-15T03:17:19;56.70;;;24.50;;
19780;SDS011;10050;55.492;13.506;2023-02-15T03:19:48;59.40;;;25.43;;
19780;SDS011;10050;55.492;13.506;2023-02-15T03:22:18;58.17;;;25.53;;
19780;SDS011;10050;55.492;13.506;2023-02-15T03:24:51;56.40;;;25.70;;
19780;SDS011;10050;55.492;13.506;2023-02-15T03:27:24;51.23;;;24.77;;
19780;SDS011;10050;55.492;13.506;2023-02-15T03:29:57;52.63;;;25.20;;
19780;SDS011;10050;55.492;13.506;2023-02-15T03:32:24;56.17;;;25.53;;
19780;SDS011;10050;55.492;13.506;2023-02-15T03:34:53;54.37;;;25.53;;
19780;SDS011;10050;55.492;13.506;2023-02-15T03:37:24;60.33;;;26.10;;
19780;SDS011;10050;55.492;13.506;2023-02-15T03:43:02;60.40;;;25.27;;
19780;SDS011;10050;55.492;13.506;2023-02-15T03:45:35;58.73;;;26.07;;
19780;SDS011;10050;55.492;13.506;2023-02-15T03:48:19;49.93;;;23.07;;
19780;SDS011;10050;55.492;13.506;2023-02-15T03:50:48;54.83;;;23.77;;
19780;SDS011;10050;55.492;13.506;2023-02-15T03:53:34;52.60;;;24.90;;
19780;SDS011;10050;55.492;13.506;2023-02-15T03:56:00;51.40;;;23.73;;
19780;SDS011;10050;55.492;13.506;2023-02-15T03:58:25;53.80;;;24.83;;
19780;SDS011;10050;55.492;13.506;2023-02-15T04:01:15;50.90;;;24.27;;
19780;SDS011;10050;55.492;13.506;2023-02-15T04:04:22;52.73;;;23.40;;
19780;SDS011;10050;55.492;13.506;2023-02-15T04:07:03;51.40;;;23.60;;
19780;SDS011;10050;55.492;13.506;2023-02-15T04:09:30;46.10;;;21.70;;
19780;SDS011;10050;55.492;13.506;2023-02-15T04:12:15;55.07;;;23.87;;
19780;SDS011;10050;55.492;13.506;2023-02-15T04:14:41;48.63;;;22.40;;
19780;SDS011;10050;55.492;13.506;2023-02-15T04:17:25;51.53;;;22.67;;
19780;SDS011;10050;55.492;13.506;2023-02-15T04:19:51;49.53;;;23.27;;
19780;SDS011;10050;55.492;13.506;2023-02-15T04:22:35;48.60;;;22.73;;
19780;SDS011;10050;55.492;13.506;2023-02-15T04:25:19;47.93;;;21.60;;
19780;SDS011;10050;55.492;13.506;2023-02-15T04:27:46;52.20;;;23.07;;
19780;SDS011;10050;55.492;13.506;2023-02-15T04:30:14;48.03;;;22.07;;
19780;SDS011;10050;55.492;13.506;2023-02-15T04:32:41;44.77;;;22.13;;
19780;SDS011;10050;55.492;13.506;2023-02-15T04:35:07;50.13;;;21.93;;
19780;SDS011;10050;55.492;13.506;2023-02-15T04:37:34;46.60;;;21.57;;
19780;SDS011;10050;55.492;13.506;2023-02-15T04:40:00;50.50;;;24.20;;
19780;SDS011;10050;55.492;13.506;2023-02-15T04:42:25;48.07;;;23.00;;
19780;SDS011;10050;55.492;13.506;2023-02-15T04:44:52;44.37;;;22.47;;
19780;SDS011;10050;55.492;13.506;2023-02-15T04:47:18;49.23;;;23.87;;
19780;SDS011;10050;55.492;13.506;2023-02-15T04:49:43;50.10;;;23.10;;
19780;SDS011;10050;55.492;13.506;2023-02-15T04:52:09;51.57;;;24.87;;
19780;SDS011;10050;55.492;13.506;2023-02-15T04:54:35;53.80;;;25.47;;
19780;SDS011;10050;55.492;13.506;2023-02-15T04:57:01;47.37;;;23.30;;
19780;SDS011;10050;55.492;13.506;2023-02-15T04:59:27;51.40;;;24.57;;
19780;SDS011;10050;55.492;13.506;2023-02-15T05:01:52;46.43;;;24.50;;
19780;SDS011;10050;55.492;13.506;2023-02-15T05:04:18;51.53;;;24.17;;
19780;SDS011;10050;55.492;13.506;2023-02-15T05:06:44;52.20;;;24.20;;
19780;SDS011;10050;55.492;13.506;2023-02-15T05:09:12;50.63;;;23.97;;
19780;SDS011;10050;55.492;13.506;2023-02-15T05:11:38;48.53;;;24.77;;
19780;SDS011;10050;55.492;13.506;2023-02-15T05:14:04;55.07;;;24.27;;
19780;SDS011;10050;55.492;13.506;2023-02-15T05:16:30;50.03;;;24.40;;
19780;SDS011;10050;55.492;13.506;2023-02-15T05:18:55;55.50;;;26.97;;
19780;SDS011;10050;55.492;13.506;2023-02-15T05:21:21;57.67;;;26.07;;
19780;SDS011;10050;55.492;13.506;2023-02-15T05:23:46;51.27;;;25.17;;
19780;SDS011;10050;55.492;13.506;2023-02-15T05:26:12;52.87;;;25.13;;
19780;SDS011;10050;55.492;13.506;2023-02-15T05:29:00;50.43;;;24.33;;
19780;SDS011;10050;55.492;13.506;2023-02-15T05:31:26;57.30;;;26.43;;
19780;SDS011;10050;55.492;13.506;2023-02-15T05:33:52;50.23;;;25.77;;
19780;SDS011;10050;55.492;13.506;2023-02-15T05:36:17;51.40;;;24.80;;
19780;SDS011;10050;55.492;13.506;2023-02-15T05:38:43;57.67;;;26.10;;
19780;SDS011;10050;55.492;13.506;2023-02-15T05:41:09;58.57;;;27.30;;
19780;SDS011;10050;55.492;13.506;2023-02-15T05:43:36;62.23;;;28.60;;
19780;SDS011;10050;55.492;13.506;2023-02-15T05:46:02;56.10;;;26.40;;
19780;SDS011;10050;55.492;13.506;2023-02-15T05:48:29;54.33;;;26.03;;
19780;SDS011;10050;55.492;13.506;2023-02-15T05:53:27;52.57;;;25.27;;
19780;SDS011;10050;55.492;13.506;2023-02-15T05:55:53;53.77;;;26.33;;
19780;SDS011;10050;55.492;13.506;2023-02-15T05:58:23;55.90;;;26.80;;
19780;SDS011;10050;55.492;13.506;2023-02-15T06:00:53;61.90;;;28.47;;
19780;SDS011;10050;55.492;13.506;2023-02-15T06:03:19;57.73;;;26.40;;
19780;SDS011;10050;55.492;13.506;2023-02-15T06:05:44;53.73;;;27.07;;
19780;SDS011;10050;55.492;13.506;2023-02-15T06:08:10;60.23;;;27.13;;
19780;SDS011;10050;55.492;13.506;2023-02-15T06:10:36;57.60;;;28.10;;
19780;SDS011;10050;55.492;13.506;2023-02-15T06:13:01;58.57;;;28.63;;
19780;SDS011;10050;55.492;13.506;2023-02-15T06:15:27;58.03;;;27.63;;
19780;SDS011;10050;55.492;13.506;2023-02-15T06:17:52;56.77;;;28.63;;
19780;SDS011;10050;55.492;13.506;2023-02-15T06:20:18;59.50;;;26.90;;
19780;SDS011;10050;55.492;13.506;2023-02-15T06:22:44;49.00;;;25.60;;
19780;SDS011;10050;55.492;13.506;2023-02-15T06:25:09;55.63;;;25.80;;
19780;SDS011;10050;55.492;13.506;2023-02-15T06:27:36;58.17;;;25.63;;
19780;SDS011;10050;55.492;13.506;2023-02-15T06:30:03;53.33;;;27.07;;
19780;SDS011;10050;55.492;13.506;2023-02-15T06:32:30;54.67;;;25.77;;
19780;SDS011;10050;55.492;13.506;2023-02-15T06:34:56;53.73;;;27.13;;
19780;SDS011;10050;55.492;13.506;2023-02-15T06:37:22;56.67;;;27.40;;
19780;SDS011;10050;55.492;13.506;2023-02-15T06:39:48;57.43;;;27.77;;
19780;SDS011;10050;55.492;13.506;2023-02-15T06:42:13;55.90;;;26.33;;
19780;SDS011;10050;55.492;13.506;2023-02-15T06:44:39;54.57;;;26.20;;
19780;SDS011;10050;55.492;13.506;2023-02-15T06:47:04;56.83;;;26.43;;
19780;SDS011;10050;55.492;13.506;2023-02-15T06:49:30;53.87;;;26.13;;
19780;SDS011;10050;55.492;13.506;2023-02-15T06:51:56;56.83;;;27.17;;
19780;SDS011;10050;55.492;13.506;2023-02-15T06:54:21;52.90;;;24.97;;
19780;SDS011;10050;55.492;13.506;2023-02-15T06:56:47;53.73;;;26.57;;
19780;SDS011;10050;55.492;13.506;2023-02-15T06:59:13;55.10;;;26.23;;
19780;SDS011;10050;55.492;13.506;2023-02-15T07:01:38;48.10;;;24.70;;
19780;SDS011;10050;55.492;13.506;2023-02-15T07:04:04;52.73;;;24.70;;
19780;SDS011;10050;55.492;13.506;2023-02-15T07:06:32;58.73;;;30.17;;
19780;SDS011;10050;55.492;13.506;2023-02-15T07:08:59;48.90;;;25.50;;
19780;SDS011;10050;55.492;13.506;2023-02-15T07:11:25;51.23;;;24.93;;
19780;SDS011;10050;55.492;13.506;2023-02-15T07:14:09;49.83;;;24.30;;
19780;SDS011;10050;55.492;13.506;2023-02-15T07:16:35;51.50;;;23.93;;
19780;SDS011;10050;55.492;13.506;2023-02-15T07:19:01;52.67;;;25.40;;
19780;SDS011;10050;55.492;13.506;2023-02-15T07:21:27;52.37;;;26.13;;
19780;SDS011;10050;55.492;13.506;2023-02-15T07:23:55;48.53;;;24.20;;
19780;SDS011;10050;55.492;13.506;2023-02-15T07:26:22;49.60;;;24.23;;
19780;SDS011;10050;55.492;13.506;2023-02-15T07:28:48;51.93;;;25.70;;
19780;SDS011;10050;55.492;13.506;2023-02-15T07:31:14;53.70;;;25.60;;
19780;SDS011;10050;55.492;13.506;2023-02-15T07:33:40;54.13;;;26.77;;
19780;SDS011;10050;55.492;13.506;2023-02-15T07:36:06;48.87;;;25.30;;
19780;SDS011;10050;55.492;13.506;2023-02-15T07:41:00;54.07;;;25.20;;
19780;SDS011;10050;55.492;13.506;2023-02-15T07:43:27;54.67;;;24.70;;
19780;SDS011;10050;55.492;13.506;2023-02-15T07:45:54;48.97;;;24.10;;
19780;SDS011;10050;55.492;13.506;2023-02-15T07:48:27;52.47;;;24.80;;
19780;SDS011;10050;55.492;13.506;2023-02-15T07:50:53;50.00;;;24.97;;
19780;SDS011;10050;55.492;13.506;2023-02-15T07:53:18;51.80;;;25.30;;
19780;SDS011;10050;55.492;13.506;2023-02-15T07:55:44;54.10;;;26.03;;
19780;SDS011;10050;55.492;13.506;2023-02-15T07:58:10;54.43;;;25.77;;
19780;SDS011;10050;55.492;13.506;2023-02-15T08:00:35;52.83;;;26.10;;
19780;SDS011;10050;55.492;13.506;2023-02-15T08:03:24;49.87;;;23.67;;
19780;SDS011;10050;55.492;13.506;2023-02-15T08:05:58;53.77;;;24.83;;
19780;SDS011;10050;55.492;13.506;2023-02-15T08:08:25;50.13;;;25.40;;
19780;SDS011;10050;55.492;13.506;2023-02-15T08:11:03;55.03;;;25.03;;
19780;SDS011;10050;55.492;13.506;2023-02-15T08:13:49;53.23;;;26.43;;
19780;SDS011;10050;55.492;13.506;2023-02-15T08:16:25;48.87;;;25.00;;
19780;SDS011;10050;55.492;13.506;2023-02-15T08:18:52;49.50;;;25.83;;
19780;SDS011;10050;55.492;13.506;2023-02-15T08:21:19;53.07;;;25.47;;
19780;SDS011;10050;55.492;13.506;2023-02-15T08:23:46;52.37;;;25.47;;
19780;SDS011;10050;55.492;13.506;2023-02-15T08:26:11;49.97;;;23.97;;
19780;SDS011;10050;55.492;13.506;2023-02-15T08:28:37;56.37;;;26.33;;
19780;SDS011;10050;55.492;13.506;2023-02-15T08:31:07;54.73;;;24.97;;
19780;SDS011;10050;55.492;13.506;2023-02-15T08:33:36;57.53;;;26.23;;
19780;SDS011;10050;55.492;13.506;2023-02-15T08:36:04;50.90;;;25.33;;
19780;SDS011;10050;55.492;13.506;2023-02-15T08:38:31;53.50;;;26.23;;
19780;SDS011;10050;55.492;13.506;2023-02-15T08:40:57;52.07;;;25.87;;
19780;SDS011;10050;55.492;13.506;2023-02-15T08:43:33;50.83;;;26.33;;
19780;SDS011;10050;55.492;13.506;2023-02-15T08:45:58;52.53;;;25.17;;
19780;SDS011;10050;55.492;13.506;2023-02-15T08:48:24;51.87;;;27.20;;
19780;SDS011;10050;55.492;13.506;2023-02-15T08:50:49;53.57;;;25.50;;
19780;SDS011;10050;55.492;13.506;2023-02-15T08:53:15;55.30;;;27.03;;
19780;SDS011;10050;55.492;13.506;2023-02-15T08:55:41;55.00;;;27.00;;
19780;SDS011;10050;55.492;13.506;2023-02-15T08:58:06;54.67;;;27.00;;
19780;SDS011;10050;55.492;13.506;2023-02-15T09:00:32;53.93;;;26.17;;
19780;SDS011;10050;55.492;13.506;2023-02-15T09:02:58;62.47;;;27.03;;
19780;SDS011;10050;55.492;13.506;2023-02-15T09:05:23;59.17;;;28.30;;
19780;SDS011;10050;55.492;13.506;2023-02-15T09:07:49;58.63;;;27.63;;
19780;SDS011;10050;55.492;13.506;2023-02-15T09:10:14;57.33;;;27.33;;
19780;SDS011;10050;55.492;13.506;2023-02-15T09:12:40;53.53;;;26.50;;
19780;SDS011;10050;55.492;13.506;2023-02-15T09:15:06;55.07;;;27.87;;
19780;SDS011;10050;55.492;13.506;2023-02-15T09:17:32;57.37;;;27.17;;
19780;SDS011;10050;55.492;13.506;2023-02-15T09:19:57;50.07;;;26.57;;
19780;SDS011;10050;55.492;13.506;2023-02-15T09:22:23;53.13;;;27.00;;
19780;SDS011;10050;55.492;13.506;2023-02-15T09:24:48;49.23;;;26.33;;
19780;SDS011;10050;55.492;13.506;2023-02-15T09:27:14;50.67;;;28.27;;
19780;SDS011;10050;55.492;13.506;2023-02-15T09:29:40;54.90;;;28.00;;
19780;SDS011;10050;55.492;13.506;2023-02-15T09:32:05;54.90;;;28.17;;
19780;SDS011;10050;55.492;13.506;2023-02-15T09:34:31;54.87;;;26.67;;
19780;SDS011;10050;55.492;13.506;2023-02-15T09:36:57;48.87;;;27.47;;
19780;SDS011;10050;55.492;13.506;2023-02-15T09:39:23;49.37;;;25.73;;
19780;SDS011;10050;55.492;13.506;2023-02-15T09:48:04;53.50;;;27.10;;
19780;SDS011;10050;55.492;13.506;2023-02-15T09:50:50;53.67;;;26.93;;
19780;SDS011;10050;55.492;13.506;2023-02-15T09:53:35;48.80;;;25.20;;
19780;SDS011;10050;55.492;13.506;2023-02-15T10:04:48;50.80;;;26.10;;
19780;SDS011;10050;55.492;13.506;2023-02-15T10:10:38;46.80;;;26.17;;
19780;SDS011;10050;55.492;13.506;2023-02-15T10:14:08;45.50;;;25.37;;
19780;SDS011;10050;55.492;13.506;2023-02-15T10:19:44;50.93;;;27.50;;
19780;SDS011;10050;55.492;13.506;2023-02-15T10:25:20;48.17;;;26.53;;
19780;SDS011;10050;55.492;13.506;2023-02-15T10:28:41;48.67;;;26.27;;
19780;SDS011;10050;55.492;13.506;2023-02-15T10:30:52;48.60;;;26.47;;
19780;SDS011;10050;55.492;13.506;2023-02-15T10:38:56;42.70;;;25.50;;
19780;SDS011;10050;55.492;13.506;2023-02-15T10:49:49;47.83;;;24.63;;
19780;SDS011;10050;55.492;13.506;2023-02-15T10:52:32;45.70;;;23.73;;
19780;SDS011;10050;55.492;13.506;2023-02-15T11:01:02;49.13;;;27.67;;
19780;SDS011;10050;55.492;13.506;2023-02-15T11:06:07;46.23;;;26.93;;
19780;SDS011;10050;55.492;13.506;2023-02-15T11:08:40;44.70;;;24.50;;
19780;SDS011;10050;55.492;13.506;2023-02-15T11:11:11;49.33;;;25.93;;
19780;SDS011;10050;55.492;13.506;2023-02-15T11:13:45;49.93;;;25.83;;
19780;SDS011;10050;55.492;13.506;2023-02-15T11:16:15;47.73;;;25.30;;
19780;SDS011;10050;55.492;13.506;2023-02-15T11:21:40;43.43;;;25.07;;
19780;SDS011;10050;55.492;13.506;2023-02-15T11:24:15;45.00;;;24.97;;
19780;SDS011;10050;55.492;13.506;2023-02-15T11:26:50;46.13;;;25.67;;
19780;SDS011;10050;55.492;13.506;2023-02-15T11:32:22;46.40;;;25.60;;
19780;SDS011;10050;55.492;13.506;2023-02-15T11:37:31;45.80;;;25.37;;
19780;SDS011;10050;55.492;13.506;2023-02-15T11:40:00;48.30;;;25.67;;
19780;SDS011;10050;55.492;13.506;2023-02-15T11:42:28;47.70;;;26.17;;
19780;SDS011;10050;55.492;13.506;2023-02-15T11:47:41;44.87;;;25.53;;
19780;SDS011;10050;55.492;13.506;2023-02-15T11:50:13;48.33;;;25.90;;
19780;SDS011;10050;55.492;13.506;2023-02-15T11:52:40;47.80;;;27.27;;
19780;SDS011;10050;55.492;13.506;2023-02-15T11:55:09;51.40;;;26.77;;
19780;SDS011;10050;55.492;13.506;2023-02-15T11:57:41;45.73;;;25.73;;
19780;SDS011;10050;55.492;13.506;2023-02-15T12:00:19;46.13;;;24.93;;
19780;SDS011;10050;55.492;13.506;2023-02-15T12:02:56;48.37;;;26.53;;
19780;SDS011;10050;55.492;13.506;2023-02-15T12:05:23;51.47;;;26.73;;
19780;SDS011;10050;55.492;13.506;2023-02-15T12:07:57;48.60;;;27.03;;
19780;SDS011;10050;55.492;13.506;2023-02-15T12:10:30;50.00;;;25.50;;
19780;SDS011;10050;55.492;13.506;2023-02-15T12:15:36;49.20;;;27.13;;
19780;SDS011;10050;55.492;13.506;2023-02-15T12:18:15;53.87;;;26.40;;
19780;SDS011;10050;55.492;13.506;2023-02-15T12:20:51;50.73;;;25.30;;
19780;SDS011;10050;55.492;13.506;2023-02-15T12:23:17;46.20;;;25.20;;
19780;SDS011;10050;55.492;13.506;2023-02-15T12:25:53;45.60;;;26.03;;
19780;SDS011;10050;55.492;13.506;2023-02-15T12:28:25;46.83;;;25.40;;
19780;SDS011;10050;55.492;13.506;2023-02-15T12:30:54;47.00;;;26.23;;
19780;SDS011;10050;55.492;13.506;2023-02-15T12:33:28;44.20;;;25.30;;
19780;SDS011;10050;55.492;13.506;2023-02-15T12:36:01;48.43;;;25.87;;
19780;SDS011;10050;55.492;13.506;2023-02-15T12:38:34;54.00;;;28.17;;
19780;SDS011;10050;55.492;13.506;2023-02-15T12:41:05;50.93;;;26.80;;
19780;SDS011;10050;55.492;13.506;2023-02-15T12:44:35;52.40;;;27.53;;
19780;SDS011;10050;55.492;13.506;2023-02-15T12:47:06;44.07;;;24.73;;
19780;SDS011;10050;55.492;13.506;2023-02-15T12:49:44;51.73;;;26.60;;
19780;SDS011;10050;55.492;13.506;2023-02-15T12:52:28;47.17;;;25.97;;
19780;SDS011;10050;55.492;13.506;2023-02-15T12:54:54;47.93;;;26.30;;
19780;SDS011;10050;55.492;13.506;2023-02-15T12:57:26;49.00;;;26.80;;
19780;SDS011;10050;55.492;13.506;2023-02-15T13:00:02;45.33;;;25.13;;
19780;SDS011;10050;55.492;13.506;2023-02-15T13:02:50;45.07;;;25.50;;
19780;SDS011;10050;55.492;13.506;2023-02-15T13:05:19;46.43;;;26.23;;
19780;SDS011;10050;55.492;13.506;2023-02-15T13:07:59;56.73;;;27.23;;
19780;SDS011;10050;55.492;13.506;2023-02-15T13:10:29;49.83;;;27.10;;
19780;SDS011;10050;55.492;13.506;2023-02-15T13:12:58;50.47;;;27.30;;
19780;SDS011;10050;55.492;13.506;2023-02-15T13:15:32;46.30;;;25.87;;
19780;SDS011;10050;55.492;13.506;2023-02-15T13:18:01;48.07;;;26.53;;
19780;SDS011;10050;55.492;13.506;2023-02-15T13:20:29;50.47;;;26.77;;
19780;SDS011;10050;55.492;13.506;2023-02-15T13:23:04;49.50;;;28.57;;
19780;SDS011;10050;55.492;13.506;2023-02-15T13:25:47;50.00;;;25.90;;
19780;SDS011;10050;55.492;13.506;2023-02-15T13:28:16;55.10;;;27.37;;
19780;SDS011;10050;55.492;13.506;2023-02-15T13:30:45;52.77;;;27.57;;
19780;SDS011;10050;55.492;13.506;2023-02-15T13:35:42;58.50;;;29.80;;
19780;SDS011;10050;55.492;13.506;2023-02-15T13:38:16;56.97;;;28.73;;
19780;SDS011;10050;55.492;13.506;2023-02-15T13:41:09;49.67;;;25.07;;
19780;SDS011;10050;55.492;13.506;2023-02-15T13:43:44;47.57;;;26.40;;
19780;SDS011;10050;55.492;13.506;2023-02-15T13:49:00;58.57;;;28.83;;
19780;SDS011;10050;55.492;13.506;2023-02-15T13:54:27;59.63;;;34.38;;
19780;SDS011;10050;55.492;13.506;2023-02-15T13:57:09;56.87;;;29.90;;
19780;SDS011;10050;55.492;13.506;2023-02-15T14:03:05;49.57;;;27.53;;
19780;SDS011;10050;55.492;13.506;2023-02-15T14:20:56;60.93;;;29.10;;
19780;SDS011;10050;55.492;13.506;2023-02-15T14:26:26;58.10;;;26.77;;
19780;SDS011;10050;55.492;13.506;2023-02-15T14:31:49;55.00;;;27.53;;
19780;SDS011;10050;55.492;13.506;2023-02-15T14:34:24;58.97;;;28.13;;
19780;SDS011;10050;55.492;13.506;2023-02-15T14:37:08;55.47;;;26.33;;
19780;SDS011;10050;55.492;13.506;2023-02-15T14:39:47;58.83;;;28.73;;
19780;SDS011;10050;55.492;13.506;2023-02-15T14:45:41;65.60;;;28.90;;
19780;SDS011;10050;55.492;13.506;2023-02-15T14:48:17;60.20;;;28.30;;
19780;SDS011;10050;55.492;13.506;2023-02-15T14:50:55;60.17;;;27.07;;
19780;SDS011;10050;55.492;13.506;2023-02-15T14:58:38;67.10;;;27.67;;
19780;SDS011;10050;55.492;13.506;2023-02-15T15:04:01;55.30;;;26.00;;
19780;SDS011;10050;55.492;13.506;2023-02-15T15:06:34;59.27;;;25.03;;
19780;SDS011;10050;55.492;13.506;2023-02-15T15:09:10;71.47;;;28.23;;
19780;SDS011;10050;55.492;13.506;2023-02-15T15:11:37;66.00;;;25.70;;
19780;SDS011;10050;55.492;13.506;2023-02-15T15:14:05;161.27;;;26.07;;
19780;SDS011;10050;55.492;13.506;2023-02-15T15:19:03;57.00;;;24.93;;
19780;SDS011;10050;55.492;13.506;2023-02-15T15:49:24;66.07;;;21.33;;
19780;SDS011;10050;55.492;13.506;2023-02-15T15:51:53;65.97;;;21.33;;
19780;SDS011;10050;55.492;13.506;2023-02-15T15:54:23;64.93;;;21.57;;
19780;SDS011;10050;55.492;13.506;2023-02-15T15:56:58;99.27;;;21.97;;
19780;SDS011;10050;55.492;13.506;2023-02-15T15:59:30;95.83;;;20.67;;
19780;SDS011;10050;55.492;13.506;2023-02-15T16:02:04;84.80;;;20.77;;
19780;SDS011;10050;55.492;13.506;2023-02-15T16:04:32;106.87;;;21.97;;
19780;SDS011;10050;55.492;13.506;2023-02-15T16:09:55;61.57;;;20.27;;
19780;SDS011;10050;55.492;13.506;2023-02-15T16:12:28;139.07;;;23.50;;
19780;SDS011;10050;55.492;13.506;2023-02-15T16:14:56;82.37;;;22.20;;
19780;SDS011;10050;55.492;13.506;2023-02-15T16:17:23;162.20;;;24.03;;
19780;SDS011;10050;55.492;13.506;2023-02-15T16:19:50;111.90;;;24.37;;
19780;SDS011;10050;55.492;13.506;2023-02-15T16:22:19;109.57;;;22.93;;
19780;SDS011;10050;55.492;13.506;2023-02-15T16:27:47;64.87;;;22.73;;
19780;SDS011;10050;55.492;13.506;2023-02-15T16:32:55;137.70;;;24.23;;
19780;SDS011;10050;55.492;13.506;2023-02-15T16:35:36;101.80;;;24.77;;
19780;SDS011;10050;55.492;13.506;2023-02-15T16:38:04;87.33;;;23.30;;
19780;SDS011;10050;55.492;13.506;2023-02-15T16:40:34;77.47;;;22.87;;
19780;SDS011;10050;55.492;13.506;2023-02-15T16:43:06;62.67;;;22.50;;
19780;SDS011;10050;55.492;13.506;2023-02-15T16:45:39;109.27;;;23.57;;
19780;SDS011;10050;55.492;13.506;2023-02-15T16:48:08;104.50;;;25.07;;
19780;SDS011;10050;55.492;13.506;2023-02-15T16:50:41;81.70;;;24.30;;
19780;SDS011;10050;55.492;13.506;2023-02-15T16:53:20;94.10;;;24.93;;
19780;SDS011;10050;55.492;13.506;2023-02-15T16:55:50;93.33;;;23.70;;
19780;SDS011;10050;55.492;13.506;2023-02-15T16:58:19;105.20;;;24.03;;
19780;SDS011;10050;55.492;13.506;2023-02-15T17:00:54;87.53;;;23.67;;
19780;SDS011;10050;55.492;13.506;2023-02-15T17:03:23;82.43;;;23.53;;
19780;SDS011;10050;55.492;13.506;2023-02-15T17:05:51;111.97;;;23.03;;
19780;SDS011;10050;55.492;13.506;2023-02-15T17:13:24;88.43;;;22.43;;
19780;SDS011;10050;55.492;13.506;2023-02-15T17:18:29;77.63;;;22.27;;
19780;SDS011;10050;55.492;13.506;2023-02-15T17:21:13;85.03;;;21.90;;
19780;SDS011;10050;55.492;13.506;2023-02-15T17:23:47;66.20;;;20.27;;
19780;SDS011;10050;55.492;13.506;2023-02-15T17:26:25;113.77;;;22.80;;
19780;SDS011;10050;55.492;13.506;2023-02-15T17:28:56;71.03;;;21.30;;